Tiempo atmosférico en la estación meteorológica de Nerja, Málaga (169 m.)



Fecha
DESCASC
Temp. máxima en grados centígrados (hora)
DESCASC
Temp. mínima en grados centígrados (hora)
DESCASC
Temp. media en grados centígrados
DESCASC
Racha de viento máxima en m/sg (hora)
DESCASC
Velocidad máxima media en intervalos de 10 minutos(hora)
DESCASC
Precipitaciones diarias en mm
DESCASC
Precipitaciones de 00:00 a 06:00 en mm
DESCASC
Precipitaciones de 06:00 a 12:00 en mm
DESCASC
Precipitaciones de 12:00 a 18:00 en mm
DESCASC
Precipitaciones de 18:00 a 24:00 en mm
DESCASC
18-04-2019 18.3 (14:30) 12.6 (09:20) 15.4 10.56 (08:10) 5.83 (08:10) 10.2 2.8 7.4 0 0
17-04-2019 20.1 (15:20) 13.1 (08:00) 16.6 8.33 (12:30) 3.33 (18:20) 0 0 0 0 0
16-04-2019 22.9 (14:30) 13.8 (00:00) 18.3 9.72 (13:50) 5 (13:20) 0 0 0 0 0
15-04-2019 25.1 (14:00) 15.5 (00:00) 20.3 8.33 (19:50) 3.61 (19:50) 0 0 0 0 0
14-04-2019 23 (15:40) 13.5 (00:00) 18.3 4.72 (04:10) 3.61 (03:40) 0 0 0 0 0
13-04-2019 22.1 (18:20) 12.7 (00:00) 17.4 6.67 (18:40) 3.33 (18:30) 0 0 0 0 0
12-04-2019 21.7 (16:00) 12.6 (00:00) 17.2 8.89 (01:30) 5 (02:00) 0 0 0 0 0
11-04-2019 20.7 (20:00) 13.2 (00:00) 17 9.17 (13:40) 5 (14:00) 0 0 0 0 0
10-04-2019 20.5 (15:10) 12.1 (00:00) 16.3 12.78 (17:00) 6.39 (16:10) 0 0 0 0 0
09-04-2019 19.5 (13:20) 11.4 (00:00) 15.4 11.67 (13:10) 6.39 (14:30) 0.2 0.2 0 0 0
08-04-2019 19.3 (18:20) 12.8 (00:00) 16 8.61 (14:00) 4.44 (12:50) 0.2 0 0 0 0.2
07-04-2019 17.9 (16:40) 11.6 (00:00) 14.8 13.89 (12:40) 6.67 (11:20) 0.2 0 0.2 0 0
06-04-2019 16.2 (13:40) 9.9 (00:00) 13.1 15.83 (21:10) 8.61 (21:10) 7.8 0 0 5.8 2
05-04-2019 15.1 (17:50) 10.6 (00:00) 12.9 12.5 (18:50) 5.83 (18:50) 18 0 11 7 0
04-04-2019 19.5 (17:10) 12.6 (00:00) 16.1 10 (12:00) 4.72 (12:00) 0 0 0 0 0
03-04-2019 22.9 (17:00) 12.9 (00:00) 17.9 7.22 (19:10) 4.44 (07:50) 0 0 0 0 0
02-04-2019 19.8 (14:40) 11.4 (00:00) 15.6 6.94 (17:30) 3.61 (17:30) 0 0 0 0 0
01-04-2019 19.6 (15:50) 11.8 (00:00) 15.7 8.61 (17:00) 4.44 (15:50) 0 0 0 0 0
31-03-2019 14.4 (18:10) 12.6 (00:00) 13.5 5.83 (19:00) 2.78 (19:10) 8.4 2.6 4.8 1 0
30-03-2019 17.8 (14:20) 11.8 (00:00) 14.8 10.28 (15:00) 5 (13:20) 0 0 0 0 0
29-03-2019 17.9 (15:40) 10.4 (00:00) 14.1 9.17 (14:50) 3.89 (14:10) 0 0 0 0 0
28-03-2019 18.1 (15:10) 10.4 (00:00) 14.3 14.17 (13:00) 5.83 (13:50) 0 0 0 0 0
27-03-2019 18.8 (12:40) 11 (00:00) 14.9 10.56 (15:40) 5.83 (16:00) 0 0 0 0 0
26-03-2019 21.9 (13:00) 13.1 (00:00) 17.5 9.44 (14:20) 4.72 (13:30) 0 0 0 0 0
25-03-2019 22.1 (14:50) 12.3 (00:00) 17.2 7.22 (15:00) 3.33 (14:30) 0 0 0 0 0
24-03-2019 17.6 (13:20) 12.2 (00:00) 14.9 7.78 (14:30) 3.06 (14:30) 2 0 1.4 0.4 0.2
23-03-2019 18.3 (14:20) 10.7 (00:00) 14.5 13.06 (13:10) 5.56 (12:00) 0 0 0 0 0
22-03-2019 17.5 (14:50) 9.3 (00:00) 13.4 9.17 (13:00) 3.89 (18:10) 0 0 0 0 0
21-03-2019 17 (14:00) 8.2 (00:00) 12.6 10.83 (13:20) 4.72 (13:20) 0.4 0 0 0 0.4

Gráficas

Temp. máximas Temp. mínimas Temp. medias Precipitaciones Rachas de viento máximas Velocidades máximas media en intervalos de 10 minutos

Datos horarios

Fecha y hora oficial Temperatura (ºC) Velocidad del viento (km/h) Dirección del viento Racha (km/h) Dirección de racha Precipitación (mm) Presión (hPa) Tendencia (hPa) Humedad (%)
2019-04-19 23:00:00 13 5 Norte 10 Norte 0 -- -- 84
2019-04-19 22:00:00 13.6 3 Noroeste 8 Noroeste 0 -- -- 80
2019-04-19 21:00:00 14.7 3 Este 8 Sur 0 -- -- 71
2019-04-19 20:00:00 15.8 3 Sudeste 14 Este 0 -- -- 75
2019-04-19 19:00:00 16.5 4 Sudeste 11 Sur 0 -- -- 75
2019-04-19 18:00:00 17.9 8 Sur 19 Sudeste 0 -- -- 70
2019-04-19 17:00:00 17.8 8 Sudeste 19 Sudeste 0 -- -- 70
2019-04-19 16:00:00 16.8 6 Sudeste 21 Sudeste 0 -- -- 72
2019-04-19 15:00:00 18.5 8 Sudeste 18 Sudeste 0 -- -- 64
2019-04-19 14:00:00 17.9 8 Sudeste 21 Sur 0 -- -- 64
2019-04-19 13:00:00 17.5 8 Sudeste 18 Sudeste 0 -- -- 64
2019-04-19 12:00:00 17.2 7 Sudeste 15 Sur 0 -- -- 68
2019-04-19 11:00:00 15.8 6 Sur 13 Sudeste 0 -- -- 69
2019-04-19 10:00:00 14.9 4 Sur 7 Sudeste 0 -- -- 72
2019-04-19 09:00:00 12.6 6 Norte 10 Norte 0 -- -- 78
2019-04-19 08:00:00 11.3 5 Nordeste 11 Norte 0 -- -- 80
2019-04-19 07:00:00 11.3 2 Norte 12 Norte 0 -- -- 72
2019-04-19 06:00:00 11.8 6 Norte 10 Norte 0 -- -- 71
2019-04-19 05:00:00 11.9 2 Norte 14 Norte 0 -- -- 70
2019-04-19 04:00:00 12.1 9 Norte 14 Norte 0 -- -- 75
2019-04-19 03:00:00 13.6 0 Calma 8 Este 0 -- -- 71
2019-04-19 02:00:00 14 4 Este 16 Nordeste 0 -- -- 70
2019-04-19 01:00:00 14 8 Nordeste 19 Nordeste 0 -- -- 68
2019-04-19 00:00:00 12.8 6 Nordeste 10 Nordeste 0 -- -- 74
2019-04-18 23:00:00 14.7 3 Sudeste 21 Noroeste 0 -- -- 69
2019-04-18 22:00:00 14.2 10 Norte 24 Noroeste 0 -- -- 71
2019-04-18 21:00:00 14.3 5 Noroeste 19 Sudoeste 0 -- -- 77
2019-04-18 20:00:00 16.6 7 Oeste 15 Sudoeste 0 -- -- 68
2019-04-18 19:00:00 16 4 Sudoeste 21 Sur 0 -- -- 80
2019-04-18 18:00:00 16.9 11 Sudoeste 22 Sudoeste 0 -- -- 75
2019-04-18 17:00:00 17.2 12 Sudoeste 25 Sudoeste 0 -- -- 70
2019-04-18 16:00:00 16.6 10 Sudoeste 18 Sudoeste 0 -- -- 74
2019-04-18 15:00:00 16.3 12 Sudoeste 26 Sur 0 -- -- 67
2019-04-18 14:00:00 16.1 4 Sur 20 Sudoeste 0 -- -- 82
2019-04-18 13:00:00 15.5 9 Sudoeste 21 Sur 0 -- -- 81
2019-04-18 12:00:00 15.1 5 Sur 10 Sudeste 0 -- -- 85
2019-04-18 11:00:00 13 3 Este 10 Sur 0 -- -- 91
2019-04-18 10:00:00 12.8 2 Sudeste 25 Norte 1.4 -- -- 92
2019-04-18 09:00:00 13 15 Norte 38 Norte 2 -- -- 82
2019-04-18 08:00:00 13.4 18 Norte 35 Norte 0.6 -- -- 79
2019-04-18 07:00:00 13.2 10 Noroeste 23 Noroeste 3.4 -- -- 94
2019-04-18 06:00:00 14.4 5 Oeste 21 Noroeste 2.2 -- -- 95
2019-04-18 05:00:00 14.8 6 Oeste 13 Oeste 0.2 -- -- 94
2019-04-18 04:00:00 15 9 Norte 19 Noroeste 0.2 -- -- 91
2019-04-18 03:00:00 15.1 5 Sudoeste 16 Sudoeste 0.2 -- -- 93
2019-04-18 02:00:00 15.7 5 Nordeste 31 Norte 0 -- -- 86
2019-04-18 01:00:00 16 11 Noroeste 20 Oeste 0 -- -- 80
2019-04-18 00:00:00 16.2 5 Norte 12 Norte 0 -- -- 79
2019-04-17 23:00:00 16.2 5 Oeste 14 Sudoeste 0 -- -- 79
2019-04-17 22:00:00 16.1 6 Oeste 19 Oeste 0 -- -- 80
2019-04-17 21:00:00 16 8 Sudoeste 22 Sudoeste 0 -- -- 81
2019-04-17 20:00:00 16.4 9 Sudoeste 22 Sudoeste 0 -- -- 80
2019-04-17 19:00:00 16.5 8 Oeste 21 Sur 0 -- -- 81
2019-04-17 18:00:00 17.4 8 Sudoeste 18 Sudoeste 0 -- -- 79
2019-04-17 17:00:00 17.8 4 Sur 21 Sudeste 0 -- -- 78
2019-04-17 16:00:00 19.7 9 Sudeste 26 Sudeste 0 -- -- 68
2019-04-17 15:00:00 19.4 8 Sudeste 22 Sudeste 0 -- -- 73
2019-04-17 14:00:00 19.8 8 Sur 26 Sudeste 0 -- -- 70
2019-04-17 13:00:00 19 9 Sudeste 30 Este 0 -- -- 69
2019-04-17 12:00:00 17.6 8 Sudeste 18 Sur 0 -- -- 74
2019-04-17 11:00:00 17.2 7 Sur 14 Sur 0 -- -- 75
2019-04-17 10:00:00 16.1 4 Sudoeste 10 Oeste 0 -- -- 80
2019-04-17 09:00:00 14 3 Nordeste 8 Nordeste 0 -- -- 90
2019-04-17 08:00:00 13.1 3 Nordeste 9 Este 0 -- -- 88
2019-04-17 07:00:00 13.4 3 Nordeste 12 Norte 0 -- -- 85
2019-04-17 06:00:00 13.6 5 Norte 15 Norte 0 -- -- 81
2019-04-17 05:00:00 13.5 0 Calma 5 Norte 0 -- -- 80
2019-04-17 04:00:00 13.7 3 Norte 14 Oeste 0 -- -- 80
2019-04-17 03:00:00 13.7 4 Nordeste 12 Norte 0 -- -- 82
2019-04-17 02:00:00 14.6 7 Noroeste 19 Este 0 -- -- 88
2019-04-17 01:00:00 14.7 3 Oeste 12 Sudeste 0 -- -- 83
2019-04-17 00:00:00 15.3 3 Noroeste 9 Sudeste 0 -- -- 75
2019-04-16 23:00:00 17.1 6 Sudeste 28 Este 0 -- -- 65
2019-04-16 22:00:00 16 3 Nordeste 13 Norte 0 -- -- 72
2019-04-16 21:00:00 17.1 0 Calma 5 Sur 0 -- -- 77
2019-04-16 20:00:00 18.5 3 Sur 12 Sur 0 -- -- 74
2019-04-16 19:00:00 19.4 4 Sudeste 17 Sur 0 -- -- 72
2019-04-16 18:00:00 21.7 5 Sudeste 21 Sudeste 0 -- -- 59
2019-04-16 17:00:00 22.2 8 Sudeste 23 Sudeste 0 -- -- 57
2019-04-16 16:00:00 21.3 9 Sudeste 23 Sudeste 0 -- -- 60
2019-04-16 15:00:00 20.7 9 Sudeste 27 Sudeste 0 -- -- 63
2019-04-16 14:00:00 21.9 13 Sudeste 35 Sudeste 0 -- -- 53
2019-04-16 13:00:00 19.7 10 Sudeste 26 Sudeste 0 -- -- 69
2019-04-16 12:00:00 19.5 6 Sur 15 Sudeste 0 -- -- 69
2019-04-16 11:00:00 18.4 7 Sudeste 17 Sudeste 0 -- -- 71
2019-04-16 10:00:00 17.3 6 Sudeste 13 Sudeste 0 -- -- 77
2019-04-16 09:00:00 15.5 4 Norte 13 Norte 0 -- -- 71
2019-04-16 08:00:00 15.3 10 Norte 14 Norte 0 -- -- 64
2019-04-16 07:00:00 14 5 Norte 11 Norte 0 -- -- 70
2019-04-16 06:00:00 13.8 4 Norte 10 Norte 0 -- -- 74
2019-04-16 05:00:00 14 5 Nordeste 10 Norte 0 -- -- 74
2019-04-16 04:00:00 14.5 0 Calma 9 Norte 0 -- -- 72
2019-04-16 03:00:00 15.5 0 Calma 12 Nordeste 0 -- -- 65
2019-04-16 02:00:00 15.8 0 Calma 10 Norte 0 -- -- 65
2019-04-16 01:00:00 15.3 0 Calma 13 Este 0 -- -- 72
2019-04-16 00:00:00 15.5 3 Este 7 Norte 0 -- -- 73
2019-04-15 23:00:00 16.5 3 Sudoeste 13 Noroeste 0 -- -- 68
2019-04-15 22:00:00 16.8 0 Calma 8 Norte 0 -- -- 68
2019-04-15 21:00:00 19.3 0 Calma 19 Oeste 0 -- -- 60
2019-04-15 20:00:00 22.5 11 Sudoeste 30 Sudoeste 0 -- -- 46
2019-04-15 19:00:00 23.9 8 Sudoeste 19 Sudoeste 0 -- -- 40
2019-04-15 18:00:00 24.9 10 Sudoeste 21 Sur 0 -- -- 33
2019-04-15 17:00:00 24.8 8 Sudoeste 21 Sudoeste 0 -- -- 38
2019-04-15 16:00:00 24.5 8 Sur 15 Sudoeste 0 -- -- 40
2019-04-15 15:00:00 24.6 6 Sur 14 Sudoeste 0 -- -- 47
2019-04-15 14:00:00 25.1 6 Sur 13 Sur 0 -- -- 41
2019-04-15 13:00:00 23.6 6 Sur 12 Sur 0 -- -- 50
2019-04-15 12:00:00 21.4 3 Sur 6 Sur 0 -- -- 60
2019-04-15 11:00:00 19.2 4 Sudoeste 9 Sur 0 -- -- 65
2019-04-15 10:00:00 18.1 3 Oeste 5 Sudoeste 0 -- -- 69
2019-04-15 09:00:00 16.3 3 Oeste 7 Oeste 0 -- -- 68
2019-04-15 08:00:00 17 3 Oeste 10 Norte 0 -- -- 60
2019-04-15 07:00:00 16.5 4 Norte 8 Norte 0 -- -- 61
2019-04-15 06:00:00 16.6 0 Calma 10 Nordeste 0 -- -- 61
2019-04-15 05:00:00 16.7 0 Calma 6 Norte 0 -- -- 59
2019-04-15 04:00:00 17.2 2 Nordeste 13 Norte 0 -- -- 56
2019-04-15 03:00:00 16.9 4 Norte 10 Nordeste 0 -- -- 56
2019-04-15 02:00:00 17.1 0 Calma 12 Norte 0 -- -- 57
2019-04-15 01:00:00 16.7 4 Oeste 7 Oeste 0 -- -- 62
2019-04-15 00:00:00 17.4 2 Oeste 5 Nordeste 0 -- -- 59
2019-04-14 23:00:00 18 3 Nordeste 8 Norte 0 -- -- 56
2019-04-14 22:00:00 18.5 0 Calma 8 Norte 0 -- -- 54
2019-04-14 21:00:00 19.3 2 Norte 6 Norte 0 -- -- 55
2019-04-14 20:00:00 21.8 3 Sudoeste 11 Sudoeste 0 -- -- 53
2019-04-14 19:00:00 21.4 6 Sur 14 Sudoeste 0 -- -- 59
2019-04-14 18:00:00 22.6 5 Sudoeste 12 Sudoeste 0 -- -- 45
2019-04-14 17:00:00 22.7 7 Sudoeste 14 Oeste 0 -- -- 48
2019-04-14 16:00:00 22.2 6 Sur 13 Sudoeste 0 -- -- 55
2019-04-14 15:00:00 22.5 6 Sur 12 Sudeste 0 -- -- 43
2019-04-14 14:00:00 22 6 Sudoeste 11 Sur 0 -- -- 48
2019-04-14 13:00:00 20.9 4 Sur 12 Sudeste 0 -- -- 55
2019-04-14 12:00:00 19.5 5 Sur 10 Sudeste 0 -- -- 64
2019-04-14 11:00:00 18.4 6 Sur 10 Sudoeste 0 -- -- 64
2019-04-14 10:00:00 17.5 4 Sudoeste 9 Oeste 0 -- -- 63
2019-04-14 09:00:00 14.8 2 Sudoeste 9 Nordeste 0 -- -- 56
2019-04-14 08:00:00 13.7 0 Calma 10 Noroeste 0 -- -- 60
2019-04-14 07:00:00 13.8 3 Noroeste 11 Noroeste 0 -- -- 53
2019-04-14 06:00:00 15.7 0 Calma 15 Norte 0 -- -- 44
2019-04-14 05:00:00 16.8 10 Norte 17 Norte 0 -- -- 40
2019-04-14 04:00:00 16.9 12 Norte 17 Norte 0 -- -- 38
2019-04-14 03:00:00 17.2 11 Norte 17 Norte 0 -- -- 37
2019-04-14 02:00:00 17.5 10 Norte 16 Norte 0 -- -- 38
2019-04-14 01:00:00 16.5 5 Nordeste 9 Norte 0 -- -- 40
2019-04-14 00:00:00 17.2 0 Calma 15 Noroeste 0 -- -- 46
2019-04-13 23:00:00 17 4 Norte 14 Norte 0 -- -- 42
2019-04-13 22:00:00 17.2 7 Norte 14 Norte 0 -- -- 46
2019-04-13 21:00:00 18.6 9 Norte 15 Sudoeste 0 -- -- 41
2019-04-13 20:00:00 21.1 7 Oeste 22 Sudoeste 0 -- -- 35
2019-04-13 19:00:00 22 10 Sudoeste 24 Sudoeste 0 -- -- 37
2019-04-13 18:00:00 21.7 11 Sudoeste 21 Sudoeste 0 -- -- 41
2019-04-13 17:00:00 21 9 Sur 19 Sudoeste 0 -- -- 48
2019-04-13 16:00:00 21 6 Sudoeste 20 Sudoeste 0 -- -- 51
2019-04-13 15:00:00 21.1 6 Sur 13 Sur 0 -- -- 47
2019-04-13 14:00:00 20.7 6 Sur 13 Sudeste 0 -- -- 49
2019-04-13 13:00:00 19.3 5 Sur 13 Sur 0 -- -- 62
2019-04-13 12:00:00 19.3 5 Sur 11 Sudeste 0 -- -- 48
2019-04-13 11:00:00 18.3 4 Sur 9 Sur 0 -- -- 49
2019-04-13 10:00:00 17.1 4 Sur 8 Sur 0 -- -- 50
2019-04-13 09:00:00 13.8 0 Calma 5 Norte 0 -- -- 61
2019-04-13 08:00:00 13 2 Noroeste 6 Norte 0 -- -- 60
2019-04-13 07:00:00 13.3 0 Calma 8 Norte 0 -- -- 55
2019-04-13 06:00:00 14.2 3 Este 5 Nordeste 0 -- -- 56
2019-04-13 05:00:00 13.7 0 Calma 8 Sudeste 0 -- -- 54
2019-04-13 04:00:00 15 4 Noroeste 16 Norte 0 -- -- 45
2019-04-13 03:00:00 15 6 Norte 11 Norte 0 -- -- 45
2019-04-13 02:00:00 15.1 4 Sudeste 14 Norte 0 -- -- 46
2019-04-13 01:00:00 15.2 4 Norte 13 Norte 0 -- -- 43
2019-04-13 00:00:00 14.9 4 Norte 14 Norte 0 -- -- 47
2019-04-12 23:00:00 15.6 8 Norte 13 Norte 0 -- -- 47
2019-04-12 22:00:00 16.7 8 Noroeste 15 Norte 0 -- -- 43
2019-04-12 21:00:00 17.3 8 Noroeste 17 Sudoeste 0 -- -- 38
2019-04-12 20:00:00 19.8 8 Oeste 21 Sudoeste 0 -- -- 36
2019-04-12 19:00:00 20.3 9 Sudoeste 21 Sudoeste 0 -- -- 46
2019-04-12 18:00:00 19.9 11 Sur 18 Sur 0 -- -- 51
2019-04-12 17:00:00 20.4 10 Sudoeste 16 Sudoeste 0 -- -- 46
2019-04-12 16:00:00 21.7 6 Sur 18 Sur 0 -- -- 35
2019-04-12 15:00:00 21.1 8 Sudoeste 15 Sur 0 -- -- 38
2019-04-12 14:00:00 20.7 7 Sur 17 Sur 0 -- -- 41
2019-04-12 13:00:00 20.1 6 Sudoeste 12 Sudoeste 0 -- -- 43
2019-04-12 12:00:00 18.8 5 Sur 13 Sudoeste 0 -- -- 45
2019-04-12 11:00:00 18.1 6 Sudoeste 12 Sudoeste 0 -- -- 47
2019-04-12 10:00:00 17.3 4 Sudoeste 9 Norte 0 -- -- 45
2019-04-12 09:00:00 14.1 8 Norte 15 Norte 0 -- -- 52
2019-04-12 08:00:00 13 8 Norte 12 Norte 0 -- -- 53
2019-04-12 07:00:00 12.7 4 Norte 12 Norte 0 -- -- 55
2019-04-12 06:00:00 13 4 Norte 12 Norte 0 -- -- 60
2019-04-12 05:00:00 13 6 Norte 11 Norte 0 -- -- 60
2019-04-12 04:00:00 13.7 4 Noroeste 11 Norte 0 -- -- 58
2019-04-12 03:00:00 16.1 5 Nordeste 30 Noroeste 0 -- -- 47
2019-04-12 02:00:00 17.7 18 Noroeste 32 Norte 0 -- -- 35
2019-04-12 01:00:00 17.5 10 Norte 30 Nordeste 0 -- -- 37
2019-04-12 00:00:00 17.6 4 Noroeste 20 Noroeste 0 -- -- 38
2019-04-11 23:00:00 18.4 6 Noroeste 31 Noroeste 0 -- -- 36
2019-04-11 22:00:00 18.8 10 Noroeste 27 Norte 0 -- -- 33
2019-04-11 21:00:00 19.3 12 Noroeste 30 Norte 0 -- -- 33
2019-04-11 20:00:00 20.7 10 Noroeste 20 Norte 0 -- -- 34
2019-04-11 19:00:00 19.7 4 Sudeste 18 Sudoeste 0 -- -- 62
2019-04-11 18:00:00 20.6 6 Sudeste 22 Sudoeste 0 -- -- 58
2019-04-11 17:00:00 20 13 Sudoeste 32 Sudoeste 0 -- -- 60
2019-04-11 16:00:00 19.8 17 Sudoeste 32 Sudoeste 0 -- -- 52
2019-04-11 15:00:00 19.7 13 Sudoeste 29 Sur 0 -- -- 58
2019-04-11 14:00:00 19 18 Sudoeste 33 Sudoeste 0 -- -- 60
2019-04-11 13:00:00 19.7 15 Sudoeste 29 Sudoeste 0 -- -- 49
2019-04-11 12:00:00 19.7 8 Noroeste 22 Noroeste 0 -- -- 39
2019-04-11 11:00:00 17.9 11 Noroeste 25 Noroeste 0 -- -- 45
2019-04-11 10:00:00 16.4 10 Noroeste 26 Norte 0 -- -- 49
2019-04-11 09:00:00 14.7 15 Norte 25 Noroeste 0 -- -- 55
2019-04-11 08:00:00 13.7 8 Norte 18 Norte 0 -- -- 56
2019-04-11 07:00:00 13.9 11 Norte 19 Norte 0 -- -- 55
2019-04-11 06:00:00 13.8 9 Norte 15 Noroeste 0 -- -- 56
2019-04-11 05:00:00 14.9 7 Norte 18 Noroeste 0 -- -- 52
2019-04-11 04:00:00 15 7 Noroeste 21 Oeste 0 -- -- 51
2019-04-11 03:00:00 13.2 4 Noroeste 9 Noroeste 0 -- -- 57
2019-04-11 02:00:00 14.3 4 Norte 10 Noroeste 0 -- -- 53
2019-04-11 01:00:00 15.7 7 Noroeste 16 Oeste 0 -- -- 49
2019-04-11 00:00:00 15.6 5 Noroeste 15 Oeste 0 -- -- 51
2019-04-10 23:00:00 16.1 6 Oeste 15 Oeste 0 -- -- 48
2019-04-10 22:00:00 16.2 6 Noroeste 14 Oeste 0 -- -- 47
2019-04-10 21:00:00 16.9 6 Noroeste 29 Oeste 0 -- -- 44
2019-04-10 20:00:00 18.3 11 Oeste 31 Noroeste 0 -- -- 41
2019-04-10 19:00:00 18.4 10 Oeste 39 Oeste 0 -- -- 39
2019-04-10 18:00:00 19.1 12 Noroeste 42 Noroeste 0 -- -- 36
2019-04-10 17:00:00 19.9 16 Noroeste 46 Oeste 0 -- -- 35
2019-04-10 16:00:00 19.8 22 Norte 43 Noroeste 0 -- -- 38
2019-04-10 15:00:00 20 14 Norte 35 Norte 0 -- -- 39
2019-04-10 14:00:00 19.2 15 Noroeste 37 Noroeste 0 -- -- 41
2019-04-10 13:00:00 18.2 15 Noroeste 37 Noroeste 0 -- -- 41
2019-04-10 12:00:00 17.1 13 Noroeste 35 Noroeste 0 -- -- 46
2019-04-10 11:00:00 16.4 13 Noroeste 27 Noroeste 0 -- -- 46
2019-04-10 10:00:00 15.1 5 Sudoeste 24 Oeste 0 -- -- 49
2019-04-10 09:00:00 12.3 9 Norte 15 Norte 0 -- -- 62
2019-04-10 08:00:00 12.9 4 Nordeste 24 Noroeste 0 -- -- 55
2019-04-10 07:00:00 13.4 7 Noroeste 22 Noroeste 0 -- -- 55
2019-04-10 06:00:00 13.4 8 Noroeste 20 Oeste 0 -- -- 56
2019-04-10 05:00:00 12.9 3 Noroeste 18 Oeste 0 -- -- 61
2019-04-10 04:00:00 13.1 6 Noroeste 16 Oeste 0 -- -- 62
2019-04-10 03:00:00 12.8 3 Oeste 9 Noroeste 0 -- -- 66
2019-04-10 02:00:00 13.8 5 Noroeste 15 Oeste 0 -- -- 63
2019-04-10 01:00:00 15 7 Noroeste 19 Oeste 0 -- -- 59
2019-04-10 00:00:00 15.6 8 Noroeste 25 Noroeste 0 -- -- 59
2019-04-09 23:00:00 15.7 8 Oeste 16 Oeste 0 -- -- 59
2019-04-09 22:00:00 15.8 6 Oeste 24 Noroeste 0 -- -- 56
2019-04-09 21:00:00 16.4 8 Oeste 19 Oeste 0 -- -- 54
2019-04-09 20:00:00 16.6 5 Sudoeste 22 Sudoeste 0 -- -- 65
2019-04-09 19:00:00 17.8 10 Oeste 35 Oeste 0 -- -- 67
2019-04-09 18:00:00 16.2 17 Sudoeste 36 Sudoeste 0 -- -- 73
2019-04-09 17:00:00 18.3 17 Sudoeste 40 Sudoeste 0 -- -- 62
2019-04-09 16:00:00 18.2 13 Sudoeste 37 Sudoeste 0 -- -- 60
2019-04-09 15:00:00 16.8 19 Sudoeste 41 Sudoeste 0 -- -- 68
2019-04-09 14:00:00 18.2 19 Sudoeste 42 Oeste 0 -- -- 55
2019-04-09 13:00:00 19 18 Oeste 41 Sudoeste 0 -- -- 42
2019-04-09 12:00:00 18.3 13 Oeste 28 Oeste 0 -- -- 46
2019-04-09 11:00:00 16.9 12 Oeste 26 Oeste 0 -- -- 47
2019-04-09 10:00:00 15.2 11 Noroeste 27 Noroeste 0 -- -- 50
2019-04-09 09:00:00 12 6 Norte 14 Norte 0 -- -- 61
2019-04-09 08:00:00 11.7 8 Norte 22 Oeste 0 -- -- 62
2019-04-09 07:00:00 13.7 12 Oeste 27 Oeste 0 -- -- 53
2019-04-09 06:00:00 13.3 10 Oeste 22 Oeste 0 -- -- 54
2019-04-09 05:00:00 13.1 8 Noroeste 20 Oeste 0 -- -- 58
2019-04-09 04:00:00 12.8 3 Noroeste 14 Oeste 0 -- -- 62
2019-04-09 03:00:00 13.6 5 Oeste 15 Oeste 0 -- -- 61
2019-04-09 02:00:00 13.9 10 Noroeste 16 Noroeste 0 -- -- 64
2019-04-09 01:00:00 13.3 6 Oeste 13 Sudoeste 0.2 -- -- 88
2019-04-09 00:00:00 14.2 4 Oeste 14 Sudoeste 0.2 -- -- 89
2019-04-08 23:00:00 14.7 3 Sudoeste 15 Oeste 0 -- -- 85
2019-04-08 22:00:00 15.1 3 Oeste 18 Oeste 0 -- -- 80
2019-04-08 21:00:00 15.8 8 Oeste 21 Oeste 0 -- -- 79
2019-04-08 20:00:00 17 8 Sudoeste 27 Sur 0 -- -- 72
2019-04-08 19:00:00 18.8 10 Sudoeste 26 Sudoeste 0 -- -- 66
2019-04-08 18:00:00 19 8 Oeste 24 Noroeste 0 -- -- 69
2019-04-08 17:00:00 18.1 13 Oeste 28 Sudoeste 0 -- -- 70
2019-04-08 16:00:00 17.9 10 Sudoeste 26 Sudoeste 0 -- -- 75
2019-04-08 15:00:00 17.4 11 Sudoeste 28 Sudoeste 0 -- -- 75
2019-04-08 14:00:00 19.1 15 Sudoeste 31 Sudoeste 0 -- -- 71
2019-04-08 13:00:00 17.5 15 Sudoeste 29 Sudoeste 0 -- -- 77
2019-04-08 12:00:00 17.6 13 Sudoeste 24 Sudoeste 0 -- -- 73
2019-04-08 11:00:00 16.6 9 Sudoeste 22 Sudoeste 0 -- -- 80
2019-04-08 10:00:00 15.4 7 Sudoeste 16 Noroeste 0 -- -- 78
2019-04-08 09:00:00 14 5 Oeste 17 Oeste 0 -- -- 80
2019-04-08 08:00:00 13.8 5 Oeste 21 Oeste 0 -- -- 78
2019-04-08 07:00:00 14.6 4 Oeste 23 Noroeste 0 -- -- 74
2019-04-08 06:00:00 13.6 6 Oeste 17 Noroeste 0 -- -- 81
2019-04-08 05:00:00 13.5 9 Noroeste 18 Oeste 0 -- -- 84
2019-04-08 04:00:00 12.9 4 Oeste 20 Oeste 0 -- -- 85
2019-04-08 03:00:00 13.6 6 Oeste 18 Noroeste 0 -- -- 84
2019-04-08 02:00:00 13.6 5 Oeste 15 Oeste 0 -- -- 85
2019-04-08 01:00:00 14 3 Oeste 16 Oeste 0 -- -- 86
2019-04-08 00:00:00 14 6 Noroeste 12 Noroeste 0 -- -- 87
2019-04-07 23:00:00 13.5 0 Calma 4 Noroeste 0 -- -- 87
2019-04-07 22:00:00 14 0 Calma 8 Norte 0 -- -- 83
2019-04-07 21:00:00 14.2 5 Oeste 17 Oeste 0 -- -- 82
2019-04-07 20:00:00 14.4 5 Oeste 16 Oeste 0 -- -- 80
2019-04-07 19:00:00 14.3 6 Oeste 21 Sudoeste 0 -- -- 83
2019-04-07 18:00:00 15.9 14 Sudoeste 32 Sudoeste 0 -- -- 71
2019-04-07 17:00:00 17.3 13 Oeste 35 Sudoeste 0 -- -- 57
2019-04-07 16:00:00 16.6 13 Oeste 33 Oeste 0 -- -- 55
2019-04-07 15:00:00 16.5 17 Oeste 40 Sudoeste 0 -- -- 52
2019-04-07 14:00:00 17.6 18 Oeste 43 Sudoeste 0 -- -- 49
2019-04-07 13:00:00 16.5 16 Oeste 50 Sudoeste 0 -- -- 49
2019-04-07 12:00:00 16.3 21 Oeste 46 Noroeste 0 -- -- 52
2019-04-07 11:00:00 15.6 19 Oeste 47 Oeste 0.2 -- -- 53
2019-04-07 10:00:00 14.1 19 Oeste 37 Oeste 0 -- -- 60
2019-04-07 09:00:00 13 18 Noroeste 38 Oeste 0 -- -- 58
2019-04-07 08:00:00 12.7 14 Oeste 37 Oeste 0 -- -- 57
2019-04-07 07:00:00 12 10 Oeste 31 Oeste 0 -- -- 64
2019-04-07 06:00:00 12.1 9 Oeste 33 Oeste 0 -- -- 61
2019-04-07 05:00:00 12.1 15 Noroeste 49 Norte 0 -- -- 65
2019-04-07 04:00:00 12.2 12 Oeste 28 Noroeste 0 -- -- 66
2019-04-07 03:00:00 12.2 10 Noroeste 26 Oeste 0 -- -- 67
2019-04-07 02:00:00 12.1 11 Oeste 27 Noroeste 0 -- -- 70
2019-04-07 01:00:00 12.1 13 Noroeste 28 Oeste 0 -- -- 71
2019-04-07 00:00:00 12.2 11 Noroeste 40 Oeste 0 -- -- 71
2019-04-06 23:00:00 11.5 18 Noroeste 44 Noroeste 0.2 -- -- 71
2019-04-06 22:00:00 10 22 Noroeste 57 Noroeste 1.6 -- -- 80
2019-04-06 21:00:00 11.8 28 Noroeste 53 Norte 0.2 -- -- 70
2019-04-06 20:00:00 12.6 10 Oeste 45 Oeste 0 -- -- 66
2019-04-06 19:00:00 13.9 16 Oeste 36 Oeste 0 -- -- 65
2019-04-06 18:00:00 13.2 12 Oeste 26 Oeste 0 -- -- 81
2019-04-06 17:00:00 14.4 10 Sudoeste 20 Oeste 0.2 -- -- 80
2019-04-06 16:00:00 11.3 9 Sudoeste 27 Sudoeste 0.4 -- -- 90
2019-04-06 15:00:00 10.8 11 Noroeste 33 Sudoeste 5.2 -- -- 87
2019-04-06 14:00:00 15.7 18 Sudoeste 35 Sur 0 -- -- 63
2019-04-06 13:00:00 14.7 18 Sudoeste 33 Sur 0 -- -- 59
2019-04-06 12:00:00 14.2 12 Oeste 37 Sudoeste 0 -- -- 54
2019-04-06 11:00:00 13.9 15 Oeste 35 Noroeste 0 -- -- 57
2019-04-06 10:00:00 13.4 9 Oeste 30 Oeste 0 -- -- 58
2019-04-06 09:00:00 11.1 11 Noroeste 27 Oeste 0 -- -- 65
2019-04-06 08:00:00 10.8 14 Noroeste 29 Oeste 0 -- -- 66
2019-04-06 07:00:00 10.3 12 Noroeste 21 Oeste 0 -- -- 67
2019-04-06 06:00:00 10.1 6 Oeste 24 Oeste 0 -- -- 68
2019-04-06 05:00:00 10.3 12 Oeste 23 Oeste 0 -- -- 66
2019-04-06 04:00:00 10.2 9 Oeste 23 Oeste 0 -- -- 65
2019-04-06 03:00:00 10.3 8 Oeste 24 Oeste 0 -- -- 64
2019-04-06 02:00:00 10.8 10 Oeste 32 Sudoeste 0 -- -- 64
2019-04-06 01:00:00 11.6 14 Oeste 36 Oeste 0 -- -- 61
2019-04-06 00:00:00 11.7 11 Noroeste 28 Oeste 0 -- -- 60
2019-04-05 23:00:00 11.9 14 Oeste 40 Oeste 0 -- -- 57
2019-04-05 22:00:00 12.3 17 Oeste 30 Noroeste 0 -- -- 54
2019-04-05 21:00:00 12.5 9 Oeste 29 Noroeste 0 -- -- 54
2019-04-05 20:00:00 14.3 14 Oeste 35 Oeste 0 -- -- 43
2019-04-05 19:00:00 15.1 14 Noroeste 45 Oeste 0 -- -- 47
2019-04-05 18:00:00 15 13 Sudoeste 30 Sudoeste 0 -- -- 70
2019-04-05 17:00:00 14.5 11 Sudoeste 27 Sur 0 -- -- 79
2019-04-05 16:00:00 13 6 Sudoeste 15 Sudoeste 0 -- -- 96
2019-04-05 15:00:00 10.8 9 Norte 24 Noroeste 2.4 -- -- 93
2019-04-05 14:00:00 11 13 Sudoeste 33 Sudoeste 3.8 -- -- 95
2019-04-05 13:00:00 11.6 6 Sudoeste 19 Sudoeste 0.8 -- -- 95
2019-04-05 12:00:00 11.9 4 Oeste 34 Sudoeste 3.2 -- -- 96
2019-04-05 11:00:00 11.9 15 Sudoeste 32 Sur 2 -- -- 93
2019-04-05 10:00:00 11.1 7 Oeste 21 Oeste 5.6 -- -- 93
2019-04-05 09:00:00 11.9 4 Noroeste 14 Oeste 0.2 -- -- 78
2019-04-05 08:00:00 12.4 5 Noroeste 12 Noroeste 0 -- -- 60
2019-04-05 07:00:00 12.2 4 Oeste 22 Noroeste 0 -- -- 58
2019-04-05 06:00:00 12 8 Noroeste 17 Oeste 0 -- -- 57
2019-04-05 05:00:00 12.3 8 Noroeste 18 Noroeste 0 -- -- 59
2019-04-05 04:00:00 12 7 Noroeste 13 Noroeste 0 -- -- 74
2019-04-05 03:00:00 11.3 3 Norte 15 Norte 0 -- -- 79
2019-04-05 02:00:00 11.5 7 Norte 11 Nordeste 0 -- -- 78
2019-04-05 01:00:00 12.3 4 Nordeste 12 Norte 0 -- -- 75
2019-04-05 00:00:00 12.6 6 Nordeste 14 Sudoeste 0 -- -- 74
2019-04-04 23:00:00 13.7 8 Sudoeste 20 Sudoeste 0 -- -- 70
2019-04-04 22:00:00 13.6 5 Noroeste 14 Oeste 0 -- -- 74
2019-04-04 21:00:00 14.2 4 Oeste 26 Sudoeste 0 -- -- 68
2019-04-04 20:00:00 16.2 9 Oeste 27 Sudoeste 0 -- -- 62
2019-04-04 19:00:00 17.9 13 Sudoeste 29 Sudoeste 0 -- -- 54
2019-04-04 18:00:00 18.4 13 Sudoeste 26 Sudoeste 0 -- -- 57
2019-04-04 17:00:00 18.9 10 Sudoeste 21 Sudoeste 0 -- -- 52
2019-04-04 16:00:00 17.6 10 Sudoeste 19 Sur 0 -- -- 49
2019-04-04 15:00:00 18.4 10 Sudeste 26 Sudeste 0 -- -- 63
2019-04-04 14:00:00 16.5 12 Sudeste 30 Sudeste 0 -- -- 76
2019-04-04 13:00:00 15.8 12 Sudeste 28 Sudeste 0 -- -- 76
2019-04-04 12:00:00 16.5 17 Sudeste 36 Este 0 -- -- 73
2019-04-04 11:00:00 17.7 9 Este 26 Este 0 -- -- 54
2019-04-04 10:00:00 15.7 5 Sudeste 13 Sudeste 0 -- -- 61
2019-04-04 09:00:00 12.7 2 Nordeste 12 Norte 0 -- -- 62
2019-04-04 08:00:00 12.9 10 Norte 14 Norte 0 -- -- 57
2019-04-04 07:00:00 13.1 9 Norte 14 Norte 0 -- -- 55
2019-04-04 06:00:00 13.6 10 Norte 14 Norte 0 -- -- 54
2019-04-04 05:00:00 13.9 6 Norte 15 Norte 0 -- -- 51
2019-04-04 04:00:00 14.5 8 Norte 14 Norte 0 -- -- 47
2019-04-04 03:00:00 14.9 10 Norte 15 Norte 0 -- -- 43
2019-04-04 02:00:00 15.5 8 Norte 13 Norte 0 -- -- 40
2019-04-04 01:00:00 15.3 9 Nordeste 14 Norte 0 -- -- 41
2019-04-04 00:00:00 17.5 5 Nordeste 16 Noroeste 0 -- -- 51
2019-04-03 23:00:00 18.6 7 Noroeste 24 Norte 0 -- -- 35
2019-04-03 22:00:00 16.5 3 Oeste 8 Oeste 0 -- -- 52
2019-04-03 21:00:00 18 4 Noroeste 14 Oeste 0 -- -- 57
2019-04-03 20:00:00 20 9 Noroeste 26 Sudoeste 0 -- -- 50
2019-04-03 19:00:00 21.1 10 Sudoeste 26 Oeste 0 -- -- 51
2019-04-03 18:00:00 21.9 10 Sudoeste 25 Sudoeste 0 -- -- 49
2019-04-03 17:00:00 22.9 11 Sudoeste 25 Sudoeste 0 -- -- 48
2019-04-03 16:00:00 21.1 13 Sudoeste 23 Sudoeste 0 -- -- 56
2019-04-03 15:00:00 19.8 12 Sudoeste 19 Sur 0 -- -- 63
2019-04-03 14:00:00 19.7 6 Sudoeste 14 Sur 0 -- -- 60
2019-04-03 13:00:00 19.5 5 Sur 11 Sudeste 0 -- -- 56
2019-04-03 12:00:00 18.7 5 Sur 10 Sudoeste 0 -- -- 66
2019-04-03 11:00:00 17.1 4 Sur 9 Sur 0 -- -- 63
2019-04-03 10:00:00 16.1 0 Calma 7 Oeste 0 -- -- 59
2019-04-03 09:00:00 13.1 2 Norte 16 Norte 0 -- -- 76
2019-04-03 08:00:00 14.2 13 Norte 20 Norte 0 -- -- 61
2019-04-03 07:00:00 13.2 9 Norte 13 Norte 0 -- -- 68
2019-04-03 06:00:00 13.4 8 Norte 13 Norte 0 -- -- 67
2019-04-03 05:00:00 13.1 6 Norte 11 Norte 0 -- -- 70
2019-04-03 04:00:00 12.9 2 Norte 9 Norte 0 -- -- 74
2019-04-03 03:00:00 13.1 7 Norte 11 Este 0 -- -- 81
2019-04-03 02:00:00 13.8 5 Nordeste 9 Nordeste 0 -- -- 79
2019-04-03 01:00:00 14.2 7 Norte 12 Norte 0 -- -- 72
2019-04-03 00:00:00 14.7 0 Calma 15 Norte 0 -- -- 78
2019-04-02 23:00:00 14.8 2 Este 9 Norte 0 -- -- 75
2019-04-02 22:00:00 15.4 0 Calma 8 Norte 0 -- -- 66
2019-04-02 21:00:00 16.6 2 Noroeste 15 Oeste 0 -- -- 61
2019-04-02 20:00:00 17.3 5 Oeste 20 Sudoeste 0 -- -- 55
2019-04-02 19:00:00 18.6 9 Sudoeste 18 Sudoeste 0 -- -- 59
2019-04-02 18:00:00 19.3 8 Sudoeste 25 Sudoeste 0 -- -- 55
2019-04-02 17:00:00 19.4 10 Sudoeste 21 Sudoeste 0 -- -- 59
2019-04-02 16:00:00 18.1 10 Sur 19 Sur 0 -- -- 62
2019-04-02 15:00:00 19.3 10 Sudoeste 17 Sudoeste 0 -- -- 62
2019-04-02 14:00:00 18.7 6 Sur 14 Sur 0 -- -- 66
2019-04-02 13:00:00 17.7 5 Sur 13 Sur 0 -- -- 70
2019-04-02 12:00:00 16.9 7 Sur 14 Sur 0 -- -- 76
2019-04-02 11:00:00 16 4 Sudeste 9 Sur 0 -- -- 79
2019-04-02 10:00:00 14.6 3 Sudeste 8 Nordeste 0 -- -- 86
2019-04-02 09:00:00 12 7 Norte 10 Norte 0 -- -- 78
2019-04-02 08:00:00 11.5 6 Norte 12 Norte 0 -- -- 77
2019-04-02 07:00:00 12 7 Norte 12 Norte 0 -- -- 79
2019-04-02 06:00:00 11.5 4 Norte 10 Norte 0 -- -- 80
2019-04-02 05:00:00 12 8 Norte 12 Norte 0 -- -- 84
2019-04-02 04:00:00 12.4 8 Norte 10 Norte 0 -- -- 88
2019-04-02 03:00:00 12.5 5 Norte 10 Norte 0 -- -- 86
2019-04-02 02:00:00 12.6 5 Nordeste 10 Norte 0 -- -- 81
2019-04-02 01:00:00 12.9 4 Norte 10 Norte 0 -- -- 78
2019-04-02 00:00:00 13.3 3 Norte 7 Norte 0 -- -- 78
2019-04-01 23:00:00 14 6 Norte 11 Norte 0 -- -- 75
2019-04-01 22:00:00 14.4 0 Calma 10 Noroeste 0 -- -- 81
2019-04-01 21:00:00 15.6 3 Oeste 13 Oeste 0 -- -- 77
2019-04-01 20:00:00 17.3 8 Sudoeste 18 Sudoeste 0 -- -- 69
2019-04-01 19:00:00 18.7 10 Sudoeste 19 Sudoeste 0 -- -- 64
2019-04-01 18:00:00 19.1 8 Oeste 26 Noroeste 0 -- -- 60
2019-04-01 17:00:00 17.3 14 Noroeste 31 Noroeste 0 -- -- 66
2019-04-01 16:00:00 19.5 14 Sudoeste 30 Sur 0 -- -- 65
2019-04-01 15:00:00 18.6 12 Sudoeste 23 Sudoeste 0 -- -- 71
2019-04-01 14:00:00 18.4 13 Sudoeste 23 Sudoeste 0 -- -- 72
2019-04-01 13:00:00 18.2 10 Sudoeste 17 Sudoeste 0 -- -- 72
2019-04-01 12:00:00 15.8 6 Sudoeste 13 Oeste 0 -- -- 82
2019-04-01 11:00:00 15.7 5 Sudoeste 11 Sudoeste 0 -- -- 81
2019-04-01 10:00:00 14.6 2 Sur 15 Noroeste 0 -- -- 84
2019-04-01 09:00:00 12.8 5 Noroeste 12 Oeste 0 -- -- 88
2019-04-01 08:00:00 11.8 6 Norte 10 Norte 0 -- -- 92
2019-04-01 07:00:00 12.1 3 Norte 12 Noroeste 0 -- -- 92
2019-04-01 06:00:00 13.2 8 Norte 12 Norte 0 -- -- 93
2019-04-01 05:00:00 13.5 3 Noroeste 6 Norte 0 -- -- 97
2019-04-01 04:00:00 13.8 0 Calma 7 Oeste 0 -- -- 96
2019-04-01 03:00:00 13.7 2 Norte 6 Norte 0 -- -- 96
2019-04-01 02:00:00 13.8 3 Noroeste 6 Oeste 0 -- -- 96
2019-04-01 01:00:00 13.5 0 Calma 6 Oeste 0 -- -- 94
2019-04-01 00:00:00 14.1 2 Sudoeste 14 Oeste 0 -- -- 93
2019-03-31 23:00:00 13.9 5 Noroeste 12 Noroeste 0 -- -- 92
2019-03-31 22:00:00 13.7 4 Oeste 9 Oeste 0 -- -- 95
2019-03-31 21:00:00 13.6 5 Noroeste 10 Oeste 0 -- -- 95
2019-03-31 20:00:00 13.8 5 Sudoeste 19 Sudoeste 0 -- -- 95
2019-03-31 19:00:00 14 9 Sudoeste 21 Sudoeste 0 -- -- 95
2019-03-31 18:00:00 14.3 5 Sudoeste 13 Sur 0 -- -- 97
2019-03-31 17:00:00 14.1 3 Sur 12 Sudoeste 0 -- -- 98
2019-03-31 16:00:00 14 4 Sur 13 Sudoeste 0 -- -- 98
2019-03-31 15:00:00 13.8 4 Sudoeste 10 Oeste 1 -- -- 99
2019-03-31 14:00:00 13.4 4 Sur 13 Sudoeste 0 -- -- 99
2019-03-31 13:00:00 13.6 4 Sudoeste 9 Sudoeste 0 -- -- 99
2019-03-31 12:00:00 13.5 2 Sur 6 Sudeste 0 -- -- 99
2019-03-31 11:00:00 13.1 4 Sudeste 6 Sur 1 -- -- 99
2019-03-31 10:00:00 12.9 0 Calma 5 Oeste 1.4 -- -- 99
2019-03-31 09:00:00 12.6 3 Sudoeste 6 Sudoeste 0.8 -- -- 98
2019-03-31 08:00:00 12.6 0 Calma 8 Sudoeste 1 -- -- 98
2019-03-31 07:00:00 12.8 3 Sudoeste 8 Oeste 0.6 -- -- 97
2019-03-31 06:00:00 13 3 Oeste 7 Sudoeste 0.4 -- -- 97
2019-03-31 05:00:00 13.1 0 Calma 4 Sudoeste 0 -- -- 96
2019-03-31 03:00:00 13.2 0 Calma 9 Este 1.6 -- -- 95
2019-03-31 01:00:00 13.4 5 Sudeste 17 Sudeste 0.2 -- -- 93
2019-03-31 00:00:00 13.9 4 Sudeste 18 Sudeste 0 -- -- 88
2019-03-30 23:00:00 14.3 4 Sudeste 12 Sudeste 0 -- -- 85
2019-03-30 22:00:00 14.4 2 Sudeste 14 Sudeste 0 -- -- 79
2019-03-30 21:00:00 14.5 3 Este 9 Este 0 -- -- 78
2019-03-30 20:00:00 14.5 0 Calma 4 Sudeste 0 -- -- 77
2019-03-30 19:00:00 14.9 0 Calma 8 Sur 0 -- -- 76
2019-03-30 18:00:00 15.3 3 Sur 14 Sudeste 0 -- -- 74
2019-03-30 17:00:00 15.5 8 Sudeste 28 Este 0 -- -- 72
2019-03-30 16:00:00 15.9 12 Sudeste 33 Sudeste 0 -- -- 72
2019-03-30 15:00:00 17.2 15 Sudeste 37 Sudeste 0 -- -- 64
2019-03-30 14:00:00 17.1 15 Sudeste 37 Sudeste 0 -- -- 64
2019-03-30 13:00:00 17.4 13 Sudeste 29 Sudeste 0 -- -- 63
2019-03-30 12:00:00 16.8 12 Sudeste 30 Sudeste 0 -- -- 62
2019-03-30 11:00:00 16 9 Sudeste 23 Sudeste 0 -- -- 66
2019-03-30 10:00:00 15.4 7 Sudeste 14 Sudeste 0 -- -- 68
2019-03-30 09:00:00 14.1 3 Sudeste 7 Sudeste 0 -- -- 71
2019-03-30 08:00:00 12.4 4 Nordeste 8 Norte 0 -- -- 80
2019-03-30 07:00:00 12.4 3 Nordeste 6 Nordeste 0 -- -- 82
2019-03-30 06:00:00 12.4 4 Norte 8 Noroeste 0 -- -- 85
2019-03-30 05:00:00 12.1 2 Noroeste 6 Noroeste 0 -- -- 85
2019-03-30 04:00:00 13 0 Calma 7 Norte 0 -- -- 81
2019-03-30 03:00:00 12.5 5 Noroeste 8 Norte 0 -- -- 84
2019-03-30 02:00:00 12.2 4 Norte 11 Noroeste 0 -- -- 85
2019-03-30 01:00:00 12.4 3 Norte 10 Norte 0 -- -- 84
2019-03-30 00:00:00 13 4 Norte 15 Este 0 -- -- 81
2019-03-29 23:00:00 14.1 7 Sudeste 19 Sudeste 0 -- -- 80
2019-03-29 22:00:00 14.2 7 Sudeste 19 Sudeste 0 -- -- 76
2019-03-29 21:00:00 14.4 5 Sudeste 12 Este 0 -- -- 75
2019-03-29 20:00:00 14.6 4 Sudeste 15 Sudeste 0 -- -- 76
2019-03-29 19:00:00 15.5 7 Sudeste 17 Sudeste 0 -- -- 71
2019-03-29 18:00:00 16.8 7 Sudeste 25 Sudeste 0 -- -- 66
2019-03-29 17:00:00 17.3 9 Sudeste 30 Sudeste 0 -- -- 64
2019-03-29 16:00:00 17.9 10 Sudeste 30 Sudeste 0 -- -- 62
2019-03-29 15:00:00 17.6 11 Sudeste 33 Este 0 -- -- 62
2019-03-29 14:00:00 17.7 12 Sudeste 28 Sur 0 -- -- 57
2019-03-29 13:00:00 16.5 9 Sudeste 24 Sur 0 -- -- 62
2019-03-29 12:00:00 17.6 8 Sudeste 21 Sudeste 0 -- -- 52
2019-03-29 11:00:00 17.2 6 Sur 14 Sudoeste 0 -- -- 49
2019-03-29 10:00:00 15.7 6 Sudoeste 10 Sur 0 -- -- 49
2019-03-29 09:00:00 14.2 3 Sur 9 Norte 0 -- -- 49
2019-03-29 08:00:00 11.8 8 Norte 13 Norte 0 -- -- 44
2019-03-29 07:00:00 11.1 0 Calma 8 Sudoeste 0 -- -- 46
2019-03-29 06:00:00 11 3 Norte 8 Norte 0 -- -- 48
2019-03-29 05:00:00 10.9 3 Nordeste 7 Noroeste 0 -- -- 42
2019-03-29 04:00:00 11.2 0 Calma 6 Este 0 -- -- 42
2019-03-29 03:00:00 11.8 0 Calma 24 Este 0 -- -- 37
2019-03-29 02:00:00 13.3 9 Este 27 Sudeste 0 -- -- 33
2019-03-29 01:00:00 10.4 2 Norte 10 Norte 0 -- -- 67
2019-03-29 00:00:00 10.8 4 Norte 10 Norte 0 -- -- 74
2019-03-28 23:00:00 12.1 7 Noroeste 15 Norte 0 -- -- 72
2019-03-28 22:00:00 12.5 3 Oeste 20 Norte 0 -- -- 70
2019-03-28 21:00:00 13.8 9 Nordeste 27 Sudeste 0 -- -- 69
2019-03-28 20:00:00 14 8 Este 31 Este 0 -- -- 69
2019-03-28 19:00:00 14.8 13 Sudeste 35 Este 0 -- -- 64
2019-03-28 18:00:00 15.9 18 Sudeste 40 Sudeste 0 -- -- 54
2019-03-28 17:00:00 16.9 15 Sudeste 41 Sudeste 0 -- -- 52
2019-03-28 16:00:00 17.5 15 Sudeste 35 Sudeste 0 -- -- 48
2019-03-28 15:00:00 18 12 Sudeste 41 Sudeste 0 -- -- 41
2019-03-28 14:00:00 17.5 17 Sudeste 40 Sudeste 0 -- -- 40
2019-03-28 13:00:00 17.2 19 Sudeste 51 Sudeste 0 -- -- 35
2019-03-28 12:00:00 16.9 16 Sudeste 41 Sudeste 0 -- -- 39
2019-03-28 11:00:00 16.7 15 Sudeste 35 Sudeste 0 -- -- 37
2019-03-28 10:00:00 16.2 8 Este 31 Este 0 -- -- 42
2019-03-28 09:00:00 14.5 12 Este 28 Este 0 -- -- 44
2019-03-28 08:00:00 12.6 12 Nordeste 26 Nordeste 0 -- -- 49
2019-03-28 07:00:00 11.4 7 Nordeste 18 Nordeste 0 -- -- 51
2019-03-28 06:00:00 11.4 6 Nordeste 15 Este 0 -- -- 57
2019-03-28 05:00:00 10.8 8 Norte 21 Nordeste 0 -- -- 65
2019-03-28 04:00:00 12.1 8 Nordeste 22 Nordeste 0 -- -- 61
2019-03-28 03:00:00 11.8 6 Nordeste 13 Norte 0 -- -- 69
2019-03-28 02:00:00 10.8 10 Norte 14 Norte 0 -- -- 77
2019-03-28 01:00:00 11.2 9 Noroeste 14 Noroeste 0 -- -- 77
2019-03-28 00:00:00 12.1 2 Norte 10 Este 0 -- -- 73
2019-03-27 23:00:00 13.3 4 Este 32 Sudeste 0 -- -- 70
2019-03-27 22:00:00 14.2 8 Este 22 Sudeste 0 -- -- 69
2019-03-27 21:00:00 14.4 10 Este 23 Este 0 -- -- 70
2019-03-27 20:00:00 14.5 8 Este 23 Sudeste 0 -- -- 68
2019-03-27 19:00:00 14.9 12 Sudeste 31 Este 0 -- -- 68
2019-03-27 18:00:00 16.3 12 Sudeste 32 Sudeste 0 -- -- 61
2019-03-27 17:00:00 17 14 Sudeste 37 Sudeste 0 -- -- 57
2019-03-27 16:00:00 17.1 21 Sudeste 38 Sudeste 0 -- -- 51
2019-03-27 15:00:00 18 15 Sudeste 36 Sudeste 0 -- -- 48
2019-03-27 14:00:00 17.9 16 Sudeste 36 Sudeste 0 -- -- 47
2019-03-27 13:00:00 18.3 12 Sudeste 31 Este 0 -- -- 48
2019-03-27 12:00:00 18.1 9 Sur 18 Sudeste 0 -- -- 36
2019-03-27 11:00:00 16.6 8 Sur 19 Sur 0 -- -- 44
2019-03-27 10:00:00 15.8 5 Sur 11 Sudoeste 0 -- -- 51
2019-03-27 09:00:00 14 5 Sudoeste 12 Oeste 0 -- -- 61
2019-03-27 08:00:00 11.7 4 Noroeste 13 Norte 0 -- -- 75
2019-03-27 07:00:00 11.1 9 Norte 13 Norte 0 -- -- 76
2019-03-27 06:00:00 11.6 8 Norte 13 Norte 0 -- -- 77
2019-03-27 05:00:00 12.3 8 Norte 15 Norte 0 -- -- 74
2019-03-27 04:00:00 12.6 5 Norte 17 Noroeste 0 -- -- 74
2019-03-27 03:00:00 12.6 5 Norte 15 Este 0 -- -- 68
2019-03-27 02:00:00 12.8 5 Nordeste 11 Este 0 -- -- 70
2019-03-27 01:00:00 13.9 3 Este 9 Este 0 -- -- 69
2019-03-27 00:00:00 14.9 0 Calma 14 Sudeste 0 -- -- 70
2019-03-26 23:00:00 15.4 6 Sudeste 11 Sudeste 0 -- -- 69
2019-03-26 22:00:00 15.1 3 Noroeste 12 Oeste 0 -- -- 79
2019-03-26 21:00:00 15.7 3 Sudoeste 8 Sudoeste 0 -- -- 75
2019-03-26 20:00:00 16.3 0 Calma 15 Sudeste 0 -- -- 70
2019-03-26 19:00:00 17.2 8 Sudeste 21 Sudeste 0 -- -- 67
2019-03-26 18:00:00 19.2 5 Sudeste 21 Este 0 -- -- 59
2019-03-26 17:00:00 20.6 12 Sudeste 25 Este 0 -- -- 51
2019-03-26 16:00:00 20.1 12 Sudeste 32 Sudeste 0 -- -- 51
2019-03-26 15:00:00 21.6 15 Sudeste 34 Sudeste 0 -- -- 46
2019-03-26 14:00:00 21.5 13 Sudeste 31 Sudeste 0 -- -- 45
2019-03-26 13:00:00 21.9 9 Sudeste 23 Sudeste 0 -- -- 40
2019-03-26 12:00:00 20.4 5 Sur 14 Sur 0 -- -- 45
2019-03-26 11:00:00 19.8 7 Sur 10 Sur 0 -- -- 45
2019-03-26 10:00:00 17.9 6 Sur 10 Sur 0 -- -- 55
2019-03-26 09:00:00 16.2 3 Sudoeste 10 Norte 0 -- -- 65
2019-03-26 08:00:00 13.9 7 Norte 13 Norte 0 -- -- 71
2019-03-26 07:00:00 13.3 6 Norte 15 Norte 0 -- -- 71
2019-03-26 06:00:00 13.2 8 Norte 12 Norte 0 -- -- 75
2019-03-26 05:00:00 13.3 4 Norte 13 Norte 0 -- -- 77
2019-03-26 04:00:00 13.4 6 Norte 11 Norte 0 -- -- 77
2019-03-26 03:00:00 13.5 7 Norte 12 Norte 0 -- -- 77
2019-03-26 02:00:00 13.6 5 Norte 13 Norte 0 -- -- 77
2019-03-26 01:00:00 14.3 6 Norte 11 Norte 0 -- -- 77
2019-03-26 00:00:00 13.8 7 Norte 12 Norte 0 -- -- 78
2019-03-25 23:00:00 13.9 4 Norte 8 Norte 0 -- -- 78
2019-03-25 22:00:00 14.3 2 Norte 10 Norte 0 -- -- 76
2019-03-25 21:00:00 14.8 2 Noroeste 6 Noroeste 0 -- -- 75
2019-03-25 20:00:00 15.9 6 Noroeste 10 Oeste 0 -- -- 71
2019-03-25 19:00:00 17.7 2 Noroeste 14 Sudeste 0 -- -- 65
2019-03-25 18:00:00 19.2 5 Sudeste 21 Este 0 -- -- 60
2019-03-25 17:00:00 19.9 6 Sur 22 Sur 0 -- -- 58
2019-03-25 16:00:00 20.1 6 Sudeste 23 Sudeste 0 -- -- 55
2019-03-25 15:00:00 22 11 Sudeste 26 Sudeste 0 -- -- 45
2019-03-25 14:00:00 21.1 8 Sur 17 Sur 0 -- -- 49
2019-03-25 13:00:00 19.4 5 Sur 13 Sur 0 -- -- 55
2019-03-25 12:00:00 18.8 6 Sur 14 Sudeste 0 -- -- 56
2019-03-25 11:00:00 18.1 3 Sur 12 Sudeste 0 -- -- 59
2019-03-25 10:00:00 17 4 Sur 8 Sur 0 -- -- 63
2019-03-25 09:00:00 15.2 0 Calma 10 Norte 0 -- -- 66
2019-03-25 08:00:00 12.9 8 Norte 12 Norte 0 -- -- 71
2019-03-25 07:00:00 12.4 11 Norte 15 Norte 0 -- -- 73
2019-03-25 06:00:00 12.6 3 Norte 12 Norte 0 -- -- 73
2019-03-25 05:00:00 12.5 9 Norte 14 Norte 0 -- -- 76
2019-03-25 04:00:00 12.8 3 Norte 13 Norte 0 -- -- 75
2019-03-25 03:00:00 13 0 Calma 7 Noroeste 0 -- -- 76
2019-03-25 02:00:00 12.7 0 Calma 13 Norte 0 -- -- 74
2019-03-25 01:00:00 13.4 4 Nordeste 11 Norte 0 -- -- 71
2019-03-25 00:00:00 13.3 5 Norte 12 Norte 0 -- -- 74
2019-03-24 23:00:00 13.4 7 Norte 10 Norte 0 -- -- 77
2019-03-24 22:00:00 14.3 0 Calma 10 Norte 0 -- -- 79
2019-03-24 21:00:00 14.5 9 Norte 12 Norte 0 -- -- 80
2019-03-24 20:00:00 14.7 4 Oeste 11 Noroeste 0 -- -- 84
2019-03-24 19:00:00 15.5 4 Oeste 11 Nordeste 0.2 -- -- 82
2019-03-24 18:00:00 16 3 Sudeste 20 Nordeste 0.2 -- -- 73
2019-03-24 17:00:00 15.7 5 Este 21 Sudeste 0.2 -- -- 78
2019-03-24 16:00:00 16.5 6 Sudeste 20 Este 0 -- -- 71
2019-03-24 15:00:00 16.4 10 Este 28 Este 0 -- -- 70
2019-03-24 14:00:00 17.3 10 Sudeste 26 Sudeste 0 -- -- 66
2019-03-24 13:00:00 17 5 Sur 14 Este 0 -- -- 69
2019-03-24 12:00:00 16.3 4 Sudeste 12 Sur 0 -- -- 68
2019-03-24 11:00:00 15.5 4 Norte 8 Norte 0 -- -- 69
2019-03-24 10:00:00 12.7 5 Oeste 18 Sudoeste 1.2 -- -- 88
2019-03-24 09:00:00 13.4 4 Nordeste 14 Norte 0.2 -- -- 74
2019-03-24 08:00:00 13.5 10 Norte 14 Norte 0 -- -- 63
2019-03-24 07:00:00 12.9 7 Norte 10 Norte 0 -- -- 65
2019-03-24 06:00:00 13.6 3 Norte 11 Noroeste 0 -- -- 64
2019-03-24 05:00:00 13.5 6 Noroeste 9 Noroeste 0 -- -- 65
2019-03-24 04:00:00 12.6 4 Noroeste 9 Noroeste 0 -- -- 69
2019-03-24 03:00:00 13.7 3 Norte 7 Este 0 -- -- 65
2019-03-24 02:00:00 13.6 3 Nordeste 14 Sudeste 0 -- -- 63
2019-03-24 01:00:00 13.8 5 Este 14 Sudeste 0 -- -- 65
2019-03-24 00:00:00 12.7 2 Sudeste 11 Norte 0 -- -- 66
2019-03-23 23:00:00 12.8 0 Calma 9 Oeste 0 -- -- 71
2019-03-23 22:00:00 13.3 3 Oeste 18 Este 0 -- -- 71
2019-03-23 21:00:00 14.3 3 Nordeste 22 Nordeste 0 -- -- 71
2019-03-23 20:00:00 15.1 10 Este 29 Este 0 -- -- 68
2019-03-23 19:00:00 16.5 8 Este 32 Sudeste 0 -- -- 65
2019-03-23 18:00:00 17.4 12 Este 36 Sudeste 0 -- -- 60
2019-03-23 17:00:00 17.4 16 Sudeste 41 Sudeste 0 -- -- 63
2019-03-23 16:00:00 18.3 15 Sudeste 42 Este 0 -- -- 57
2019-03-23 15:00:00 18 19 Sudeste 43 Sudeste 0 -- -- 60
2019-03-23 14:00:00 18.1 17 Sudeste 47 Sudeste 0 -- -- 59
2019-03-23 13:00:00 17.7 17 Sudeste 36 Este 0 -- -- 61
2019-03-23 12:00:00 16.6 20 Sudeste 37 Este 0 -- -- 65
2019-03-23 11:00:00 16.2 16 Sudeste 33 Sudeste 0 -- -- 68
2019-03-23 10:00:00 14.8 11 Este 27 Sudeste 0 -- -- 61
2019-03-23 09:00:00 15.1 10 Este 40 Este 0 -- -- 58
2019-03-23 08:00:00 13.7 9 Nordeste 28 Nordeste 0 -- -- 67
2019-03-23 07:00:00 13.2 4 Nordeste 25 Este 0 -- -- 63
2019-03-23 06:00:00 12.2 4 Este 22 Este 0 -- -- 72
2019-03-23 05:00:00 11.1 4 Este 17 Este 0 -- -- 78
2019-03-23 04:00:00 11 8 Norte 15 Nordeste 0 -- -- 80
2019-03-23 03:00:00 11.4 4 Nordeste 14 Nordeste 0 -- -- 80
2019-03-23 02:00:00 11 5 Norte 13 Norte 0 -- -- 83
2019-03-23 01:00:00 11.1 8 Norte 11 Norte 0 -- -- 83
2019-03-23 00:00:00 11.4 6 Noroeste 12 Nordeste 0 -- -- 83
2019-03-22 23:00:00 11.4 8 Norte 14 Norte 0 -- -- 81
2019-03-22 22:00:00 11.6 8 Norte 10 Norte 0 -- -- 80
2019-03-22 21:00:00 12.5 4 Nordeste 17 Sudeste 0 -- -- 77
2019-03-22 20:00:00 13.3 9 Este 24 Sudeste 0 -- -- 75
2019-03-22 19:00:00 14.5 9 Este 27 Sudeste 0 -- -- 70
2019-03-22 18:00:00 15.7 13 Sudeste 26 Sudeste 0 -- -- 64
2019-03-22 17:00:00 17.2 9 Sudeste 26 Sudeste 0 -- -- 62
2019-03-22 16:00:00 17.4 12 Sudeste 29 Sudeste 0 -- -- 57
2019-03-22 15:00:00 17.4 11 Sudeste 32 Este 0 -- -- 56
2019-03-22 14:00:00 17.3 11 Sudeste 29 Sudeste 0 -- -- 55
2019-03-22 13:00:00 16.6 12 Sudeste 33 Este 0 -- -- 55
2019-03-22 12:00:00 17 8 Sudeste 26 Sudeste 0 -- -- 50
2019-03-22 11:00:00 16.1 9 Sudeste 26 Este 0 -- -- 48
2019-03-22 10:00:00 14.7 9 Sudeste 21 Sudeste 0 -- -- 47
2019-03-22 09:00:00 12.7 5 Sudeste 13 Norte 0 -- -- 59
2019-03-22 08:00:00 9.9 9 Norte 15 Norte 0 -- -- 70
2019-03-22 07:00:00 9.6 10 Norte 14 Norte 0 -- -- 72
2019-03-22 06:00:00 10.4 10 Norte 15 Norte 0 -- -- 69
2019-03-22 05:00:00 10.8 7 Nordeste 14 Este 0 -- -- 69
2019-03-22 04:00:00 11.6 8 Nordeste 22 Nordeste 0 -- -- 67
2019-03-22 03:00:00 11.7 6 Nordeste 19 Nordeste 0 -- -- 68
2019-03-22 02:00:00 11.4 6 Este 14 Norte 0 -- -- 70
2019-03-22 01:00:00 12.1 7 Nordeste 24 Nordeste 0 -- -- 65
2019-03-22 00:00:00 12.3 8 Nordeste 20 Nordeste 0 -- -- 65
2019-03-21 23:00:00 12.7 7 Nordeste 28 Sudeste 0 -- -- 67
2019-03-21 22:00:00 12.4 6 Este 21 Sudeste 0.2 -- -- 76
2019-03-21 21:00:00 12.2 6 Este 21 Sudeste 0.2 -- -- 82
2019-03-21 20:00:00 12.9 6 Nordeste 23 Sudeste 0 -- -- 67
2019-03-21 19:00:00 13.7 8 Sudeste 24 Sudeste 0 -- -- 65
2019-03-21 18:00:00 14.1 9 Sudeste 23 Sudeste 0 -- -- 64
2019-03-21 17:00:00 14.6 8 Sudeste 26 Este 0 -- -- 62
2019-03-21 16:00:00 15.1 11 Sudeste 32 Sudeste 0 -- -- 59
2019-03-21 15:00:00 16.7 14 Sudeste 32 Sudeste 0 -- -- 52
2019-03-21 14:00:00 17 13 Sudeste 39 Sudeste 0 -- -- 45
2019-03-21 13:00:00 16.2 15 Sudeste 35 Sudeste 0 -- -- 46
2019-03-21 12:00:00 15.9 12 Sudeste 28 Este 0 -- -- 46
2019-03-21 11:00:00 15.1 7 Sudeste 24 Sudeste 0 -- -- 48
2019-03-21 10:00:00 13.7 5 Sur 13 Este 0 -- -- 51
2019-03-21 09:00:00 11.4 3 Sur 13 Norte 0 -- -- 54
2019-03-21 08:00:00 8.6 11 Norte 16 Norte 0 -- -- 69
2019-03-21 07:00:00 8.5 11 Norte 15 Norte 0 -- -- 76
2019-03-21 06:00:00 9.1 10 Norte 17 Norte 0 -- -- 71
2019-03-21 05:00:00 10.1 12 Norte 21 Noroeste 0 -- -- 68
2019-03-21 04:00:00 9.1 7 Norte 18 Norte 0 -- -- 76
2019-03-21 03:00:00 10.1 4 Nordeste 22 Nordeste 0 -- -- 71
2019-03-21 02:00:00 10.9 10 Nordeste 22 Nordeste 0 -- -- 70
2019-03-21 01:00:00 11.2 11 Nordeste 26 Norte 0 -- -- 72
2019-03-21 00:00:00 11.1 11 Nordeste 29 Nordeste 0 -- -- 77